createdAt,value
2023-04-20T00:00:12.452Z,22.52
2023-04-20T00:02:43.832Z,23.63
2023-04-20T00:05:12.967Z,20.05
2023-04-20T00:07:41.742Z,21.90
2023-04-20T00:10:12.041Z,24.63
2023-04-20T00:12:40.292Z,23.52
2023-04-20T00:15:09.221Z,22.95
2023-04-20T00:17:38.725Z,19.95
2023-04-20T00:20:09.973Z,21.88
2023-04-20T00:22:38.221Z,23.52
2023-04-20T00:25:07.229Z,17.23
2023-04-20T00:27:36.801Z,17.00
2023-04-20T00:30:05.481Z,20.48
2023-04-20T00:32:33.766Z,22.50
2023-04-20T00:35:01.937Z,20.98
2023-04-20T00:37:30.125Z,18.60
2023-04-20T00:39:59.115Z,19.67
2023-04-20T00:42:27.327Z,19.00
2023-04-20T00:44:56.863Z,20.55
2023-04-20T00:47:25.151Z,18.02
2023-04-20T00:49:54.138Z,17.27
2023-04-20T00:52:23.066Z,19.40
2023-04-20T00:54:51.565Z,18.75
2023-04-20T00:57:24.170Z,25.00
2023-04-20T00:59:52.802Z,21.15
2023-04-20T01:02:25.086Z,21.75
2023-04-20T01:04:53.425Z,18.50
2023-04-20T01:07:21.569Z,19.35
2023-04-20T01:09:51.602Z,17.13
2023-04-20T01:12:19.778Z,20.98
2023-04-20T01:14:47.949Z,19.02
2023-04-20T01:17:16.129Z,22.73
2023-04-20T01:19:49.236Z,24.70
2023-04-20T01:22:20.272Z,20.80
2023-04-20T01:24:48.991Z,17.00
2023-04-20T01:27:17.481Z,18.52
2023-04-20T01:29:46.524Z,19.85
2023-04-20T01:32:14.897Z,21.90
2023-04-20T01:34:43.082Z,20.10
2023-04-20T01:37:11.199Z,19.63
2023-04-20T01:39:42.027Z,26.83
2023-04-20T01:42:10.556Z,25.50
2023-04-20T01:44:38.677Z,18.08
2023-04-20T01:47:07.188Z,20.42
2023-04-20T01:49:35.318Z,19.63
2023-04-20T01:52:03.837Z,18.63
2023-04-20T01:54:31.869Z,18.50
2023-04-20T01:57:02.867Z,16.35
2023-04-20T01:59:31.227Z,18.48
2023-04-20T02:01:59.491Z,17.55
2023-04-20T02:04:28.011Z,20.40
2023-04-20T02:06:56.196Z,16.85
2023-04-20T02:09:24.413Z,19.58
2023-04-20T02:11:52.581Z,20.55
2023-04-20T02:14:22.133Z,19.20
2023-04-20T02:16:50.362Z,17.17
2023-04-20T02:19:18.997Z,16.42
2023-04-20T02:21:47.251Z,23.88
2023-04-20T02:24:15.617Z,18.30
2023-04-20T02:26:43.739Z,22.20
2023-04-20T02:29:11.896Z,18.92
2023-04-20T02:31:41.503Z,17.75
2023-04-20T02:34:10.901Z,16.83
2023-04-20T02:36:39.106Z,17.42
2023-04-20T02:39:07.382Z,29.17
2023-04-20T02:41:35.922Z,21.92
2023-04-20T02:44:05.140Z,16.67
2023-04-20T02:46:35.672Z,18.90
2023-04-20T02:49:05.506Z,17.40
2023-04-20T02:51:38.267Z,25.95
2023-04-20T02:54:06.959Z,17.90
2023-04-20T02:56:35.155Z,19.27
2023-04-20T02:59:07.085Z,18.85
2023-04-20T03:01:48.058Z,17.88
2023-04-20T03:04:22.230Z,18.42
2023-04-20T03:07:06.551Z,20.58
2023-04-20T03:09:37.351Z,25.23
2023-04-20T03:12:18.483Z,20.85
2023-04-20T03:14:59.900Z,29.80
2023-04-20T03:17:42.572Z,24.60
2023-04-20T03:20:14.821Z,23.63
2023-04-20T03:22:43.126Z,24.65
2023-04-20T03:25:11.984Z,24.55
2023-04-20T03:27:56.077Z,26.83
2023-04-20T03:30:24.307Z,28.75
2023-04-20T03:33:06.336Z,28.33
2023-04-20T03:35:39.385Z,38.72
2023-04-20T03:38:07.878Z,43.40
2023-04-20T03:40:36.334Z,33.80
2023-04-20T03:43:05.966Z,46.97
2023-04-20T03:45:34.214Z,52.28
2023-04-20T03:48:02.966Z,36.00
2023-04-20T03:50:31.237Z,28.85
2023-04-20T03:53:00.845Z,33.22
2023-04-20T03:55:29.054Z,27.23
2023-04-20T03:58:03.530Z,25.88
2023-04-20T04:00:40.516Z,29.83
2023-04-20T04:03:13.544Z,30.02
2023-04-20T04:05:42.410Z,29.83
2023-04-20T04:08:11.933Z,18.80
2023-04-20T04:10:40.457Z,21.20
2023-04-20T04:13:08.566Z,20.10
2023-04-20T04:15:36.839Z,21.55
2023-04-20T04:18:11.098Z,20.40
2023-04-20T04:20:41.405Z,20.02
2023-04-20T04:23:14.256Z,21.05
2023-04-20T04:25:48.949Z,19.17
2023-04-20T04:28:21.182Z,19.50
2023-04-20T04:31:01.497Z,22.92
2023-04-20T04:33:30.467Z,19.20
2023-04-20T04:36:00.488Z,25.15
2023-04-20T04:38:31.667Z,24.33
2023-04-20T04:41:00.676Z,26.30
2023-04-20T04:43:31.022Z,23.52
2023-04-20T04:46:14.643Z,22.15
2023-04-20T04:48:43.383Z,23.45
2023-04-20T04:51:11.790Z,19.95
2023-04-20T04:53:45.139Z,20.55
2023-04-20T04:56:14.172Z,26.08
2023-04-20T04:58:42.200Z,22.95
2023-04-20T05:01:10.436Z,22.63
2023-04-20T05:03:38.784Z,18.02
2023-04-20T05:06:07.567Z,21.35
2023-04-20T05:08:36.196Z,22.25
2023-04-20T05:11:05.789Z,22.73
2023-04-20T05:13:34.303Z,24.88
2023-04-20T05:16:02.549Z,19.70
2023-04-20T05:18:30.665Z,22.45
2023-04-20T05:20:59.013Z,20.98
2023-04-20T05:23:27.171Z,31.30
2023-04-20T05:25:55.338Z,25.95
2023-04-20T05:28:24.843Z,21.33
2023-04-20T05:30:55.134Z,21.23
2023-04-20T05:33:23.662Z,16.60
2023-04-20T05:35:52.160Z,16.77
2023-04-20T05:38:20.404Z,21.63
2023-04-20T05:40:49.786Z,18.00
2023-04-20T05:43:19.225Z,21.90
2023-04-20T05:45:50.053Z,19.83
2023-04-20T05:48:18.315Z,21.60
2023-04-20T05:50:46.410Z,19.65
2023-04-20T05:53:14.641Z,19.70
2023-04-20T05:55:42.786Z,24.23
2023-04-20T05:58:11.916Z,19.60
2023-04-20T06:00:40.750Z,20.88
2023-04-20T06:03:10.526Z,19.33
2023-04-20T06:05:39.134Z,24.80
2023-04-20T06:08:07.473Z,22.80
2023-04-20T06:10:35.636Z,20.48
2023-04-20T06:13:04.200Z,27.17
2023-04-20T06:15:32.676Z,16.80
2023-04-20T06:18:01.791Z,18.58
2023-04-20T06:20:31.372Z,18.10
2023-04-20T06:22:59.684Z,17.70
2023-04-20T06:25:27.857Z,17.40
2023-04-20T06:27:56.440Z,25.17
2023-04-20T06:30:24.798Z,21.48
2023-04-20T06:32:53.153Z,20.50
2023-04-20T06:35:22.615Z,21.88
2023-04-20T06:37:52.214Z,18.73
2023-04-20T06:40:20.620Z,17.17
2023-04-20T06:42:49.141Z,17.90
2023-04-20T06:45:18.329Z,16.58
2023-04-20T06:47:46.704Z,15.77
2023-04-20T06:50:15.059Z,15.80
2023-04-20T06:52:43.398Z,14.88
2023-04-20T06:55:13.387Z,17.20
2023-04-20T06:57:43.848Z,14.32
2023-04-20T07:00:13.136Z,12.40
2023-04-20T07:02:46.113Z,21.42
2023-04-20T07:05:15.065Z,17.58
2023-04-20T07:07:43.288Z,19.58
2023-04-20T07:10:14.997Z,15.07
2023-04-20T07:12:44.112Z,15.02
2023-04-20T07:15:12.740Z,12.32
2023-04-20T07:17:41.029Z,18.33
2023-04-20T07:20:10.439Z,16.35
2023-04-20T07:22:39.896Z,18.30
2023-04-20T07:25:09.647Z,16.77
2023-04-20T07:27:41.483Z,15.10
2023-04-20T07:30:10.961Z,15.23
2023-04-20T07:32:40.911Z,13.00
2023-04-20T07:35:10.249Z,15.93
2023-04-20T07:37:38.411Z,15.48
2023-04-20T07:40:07.952Z,19.05
2023-04-20T07:42:37.449Z,14.10
2023-04-20T07:45:08.932Z,19.90
2023-04-20T07:47:37.617Z,15.00
2023-04-20T07:50:06.997Z,17.75
2023-04-20T07:52:35.769Z,19.33
2023-04-20T07:55:04.240Z,17.67
2023-04-20T07:57:32.473Z,15.30
2023-04-20T08:00:00.529Z,21.08
2023-04-20T08:02:32.867Z,18.23
2023-04-20T08:05:03.644Z,15.65
2023-04-20T08:07:32.389Z,27.05
2023-04-20T08:10:01.394Z,21.08
2023-04-20T08:12:29.684Z,18.63
2023-04-20T08:15:00.612Z,23.58
2023-04-20T08:17:30.166Z,22.25
2023-04-20T08:19:58.385Z,17.25
2023-04-20T08:22:29.923Z,14.63
2023-04-20T08:24:58.560Z,27.35
2023-04-20T08:27:29.654Z,15.57
2023-04-20T08:29:58.185Z,16.02
2023-04-20T08:32:26.932Z,17.92
2023-04-20T08:34:57.213Z,17.50
2023-04-20T08:37:25.951Z,15.38
2023-04-20T08:39:54.455Z,14.75
2023-04-20T08:42:22.686Z,18.20
2023-04-20T08:44:50.973Z,13.32
2023-04-20T08:47:19.138Z,19.67
2023-04-20T08:49:49.015Z,12.77
2023-04-20T08:52:18.457Z,20.83
2023-04-20T08:54:56.002Z,18.70
2023-04-20T08:57:25.846Z,14.68
2023-04-20T08:59:54.591Z,17.73
2023-04-20T09:02:24.791Z,21.65
2023-04-20T09:05:03.035Z,14.70
2023-04-20T09:07:32.912Z,21.02
2023-04-20T09:10:02.041Z,16.85
2023-04-20T09:12:30.335Z,18.60
2023-04-20T09:14:58.790Z,17.58
2023-04-20T09:17:34.819Z,12.23
2023-04-20T09:20:05.235Z,20.50
2023-04-20T09:22:36.630Z,21.30
2023-04-20T09:25:14.701Z,17.33
2023-04-20T09:27:43.445Z,10.68
2023-04-20T09:30:12.670Z,8.35
2023-04-20T09:32:41.084Z,11.60
2023-04-20T09:35:10.179Z,19.05
2023-04-20T09:37:48.944Z,9.70
2023-04-20T09:40:19.092Z,12.88
2023-04-20T09:42:49.536Z,7.10
2023-04-20T09:45:19.664Z,8.93
2023-04-20T09:47:49.992Z,11.88
2023-04-20T09:50:26.631Z,8.55
2023-04-20T09:52:59.625Z,13.70
2023-04-20T09:55:28.616Z,13.23
2023-04-20T09:57:58.956Z,9.90
2023-04-20T10:00:27.540Z,10.43
2023-04-20T10:02:56.168Z,14.02
2023-04-20T10:05:35.755Z,10.55
2023-04-20T10:08:05.904Z,8.27
2023-04-20T10:10:45.102Z,9.88
2023-04-20T10:13:13.687Z,19.42
2023-04-20T10:15:43.051Z,11.40
2023-04-20T10:18:23.827Z,16.10
2023-04-20T10:20:53.331Z,10.20
2023-04-20T10:23:23.051Z,13.65
2023-04-20T10:25:58.301Z,15.98
2023-04-20T10:28:26.949Z,10.95
2023-04-20T10:30:55.399Z,11.43
2023-04-20T10:33:24.280Z,12.25
2023-04-20T10:35:58.989Z,10.52
2023-04-20T10:38:33.670Z,9.43
2023-04-20T10:41:08.304Z,11.82
2023-04-20T10:43:39.251Z,9.07
2023-04-20T10:46:15.760Z,11.50
2023-04-20T10:48:57.492Z,7.40
2023-04-20T10:51:26.632Z,8.40
2023-04-20T10:54:06.277Z,8.15
2023-04-20T10:56:43.109Z,7.65
2023-04-20T10:59:12.631Z,11.15
2023-04-20T11:01:41.328Z,7.53
2023-04-20T11:04:10.536Z,13.82
2023-04-20T11:06:40.115Z,6.82
2023-04-20T11:09:20.523Z,6.57
2023-04-20T11:12:00.282Z,5.88
2023-04-20T11:14:29.024Z,10.25
2023-04-20T11:16:57.857Z,12.60
2023-04-20T11:19:28.108Z,8.07
2023-04-20T11:21:56.522Z,9.63
2023-04-20T11:24:27.408Z,9.40
2023-04-20T11:26:56.858Z,7.55
2023-04-20T11:29:33.305Z,9.95
2023-04-20T11:32:05.103Z,9.10
2023-04-20T11:34:34.160Z,6.85
2023-04-20T11:37:06.035Z,15.90
2023-04-20T11:39:37.115Z,10.45
2023-04-20T11:42:06.424Z,12.23
2023-04-20T11:44:36.805Z,12.07
2023-04-20T11:47:06.298Z,5.18
2023-04-20T11:49:34.725Z,9.05
2023-04-20T11:52:03.586Z,13.27
2023-04-20T11:54:34.083Z,15.15
2023-04-20T11:57:05.027Z,5.88
2023-04-20T11:59:33.431Z,13.35
2023-04-20T12:02:04.222Z,7.43
2023-04-20T12:04:34.487Z,10.07
2023-04-20T12:07:03.493Z,5.93
2023-04-20T12:09:36.136Z,12.57
2023-04-20T12:12:06.760Z,11.30
2023-04-20T12:14:35.285Z,6.70
2023-04-20T12:17:04.502Z,5.15
2023-04-20T12:19:33.135Z,8.10
2023-04-20T12:22:01.564Z,8.45
2023-04-20T12:24:29.996Z,6.60
2023-04-20T12:26:59.311Z,9.68
2023-04-20T12:29:31.259Z,5.97
2023-04-20T12:32:02.203Z,7.18
2023-04-20T12:34:30.902Z,6.10
2023-04-20T12:36:59.444Z,9.52
2023-04-20T12:39:27.817Z,7.60
2023-04-20T12:41:57.444Z,11.05
2023-04-20T12:44:26.687Z,8.50
2023-04-20T12:47:38.620Z,10.93
2023-04-20T12:50:10.739Z,7.45
2023-04-20T12:52:39.864Z,9.15
2023-04-20T12:55:08.755Z,10.90
2023-04-20T12:57:42.697Z,7.03
2023-04-20T13:00:14.459Z,8.13
2023-04-20T13:03:09.813Z,11.13
2023-04-20T13:05:38.783Z,7.57
2023-04-20T13:08:08.186Z,6.80
2023-04-20T13:10:38.581Z,14.27
2023-04-20T13:13:07.052Z,8.00
2023-04-20T13:15:39.142Z,8.70
2023-04-20T13:18:19.865Z,8.98
2023-04-20T13:20:51.727Z,9.75
2023-04-20T13:23:20.639Z,6.68
2023-04-20T13:25:49.266Z,9.02
2023-04-20T13:28:17.659Z,9.77
2023-04-20T13:30:46.514Z,8.77
2023-04-20T13:33:16.557Z,8.07
2023-04-20T13:35:44.938Z,6.40
2023-04-20T13:38:13.471Z,9.05
2023-04-20T13:40:41.819Z,5.68
2023-04-20T13:43:10.193Z,6.93
2023-04-20T13:45:38.386Z,13.20
2023-04-20T13:48:07.228Z,10.25
2023-04-20T13:50:37.286Z,13.85
2023-04-20T13:53:05.829Z,8.02
2023-04-20T13:55:34.049Z,6.47
2023-04-20T13:58:02.307Z,9.13
2023-04-20T14:00:31.125Z,5.70
2023-04-20T14:03:00.477Z,6.18
2023-04-20T14:05:29.202Z,11.70
2023-04-20T14:08:01.747Z,6.95
2023-04-20T14:10:30.500Z,9.90
2023-04-20T14:12:58.557Z,7.43
2023-04-20T14:15:27.296Z,7.70
2023-04-20T14:17:56.234Z,8.05
2023-04-20T14:20:24.749Z,7.72
2023-04-20T14:22:53.559Z,7.25
2023-04-20T14:25:23.249Z,7.40
2023-04-20T14:27:51.558Z,8.32
2023-04-20T14:30:19.832Z,11.57
2023-04-20T14:32:56.105Z,7.22
2023-04-20T14:35:25.330Z,10.98
2023-04-20T14:37:53.630Z,11.82
2023-04-20T14:40:24.620Z,10.45
2023-04-20T14:42:52.932Z,10.13
2023-04-20T14:45:23.847Z,7.13
2023-04-20T14:47:55.021Z,8.30
2023-04-20T14:50:24.228Z,5.82
2023-04-20T14:52:53.745Z,9.35
2023-04-20T14:55:26.204Z,6.40
2023-04-20T14:57:58.659Z,11.43
2023-04-20T15:00:28.390Z,7.68
2023-04-20T15:02:58.155Z,7.53
2023-04-20T15:05:27.242Z,7.57
2023-04-20T15:07:56.051Z,8.23
2023-04-20T15:10:26.148Z,6.78
2023-04-20T15:12:54.366Z,6.05
2023-04-20T15:15:23.279Z,7.93
2023-04-20T15:17:54.281Z,10.90
2023-04-20T15:20:22.835Z,11.50
2023-04-20T15:22:51.036Z,7.20
2023-04-20T15:25:19.337Z,12.70
2023-04-20T15:27:49.699Z,5.50
2023-04-20T15:30:21.256Z,10.18
2023-04-20T15:32:55.020Z,8.27
2023-04-20T15:35:32.996Z,9.00
2023-04-20T15:38:01.576Z,6.78
2023-04-20T15:40:30.015Z,8.40
2023-04-20T15:42:59.752Z,14.13
2023-04-20T15:45:30.025Z,7.85
2023-04-20T15:47:58.812Z,8.18
2023-04-20T15:50:27.317Z,9.35
2023-04-20T15:52:57.142Z,8.98
2023-04-20T15:55:25.908Z,11.57
2023-04-20T15:57:58.366Z,10.05
2023-04-20T16:00:31.475Z,8.98
2023-04-20T16:03:02.691Z,7.90
2023-04-20T16:05:31.262Z,7.03
2023-04-20T16:08:01.017Z,9.30
2023-04-20T16:10:29.647Z,14.23
2023-04-20T16:12:58.073Z,9.18
2023-04-20T16:15:27.749Z,12.00
2023-04-20T16:17:56.309Z,11.25
2023-04-20T16:20:24.604Z,9.30
2023-04-20T16:22:53.051Z,13.05
2023-04-20T16:25:24.229Z,9.25
2023-04-20T16:27:53.024Z,11.70
2023-04-20T16:30:21.935Z,9.80
2023-04-20T16:32:51.647Z,9.23
2023-04-20T16:35:25.995Z,11.20
2023-04-20T16:37:55.344Z,10.10
2023-04-20T16:40:25.645Z,10.80
2023-04-20T16:42:54.671Z,11.00
2023-04-20T16:45:23.288Z,10.95
2023-04-20T16:47:54.218Z,9.57
2023-04-20T16:50:23.673Z,11.85
2023-04-20T16:52:52.524Z,10.73
2023-04-20T16:55:21.177Z,10.93
2023-04-20T16:57:49.379Z,12.55
2023-04-20T17:00:27.466Z,9.75
2023-04-20T17:03:01.545Z,9.82
2023-04-20T17:05:30.399Z,15.15
2023-04-20T17:07:59.056Z,12.77
2023-04-20T17:10:27.419Z,14.40
2023-04-20T17:12:55.722Z,11.93
2023-04-20T17:15:24.580Z,10.18
2023-04-20T17:17:52.933Z,10.05
2023-04-20T17:20:23.926Z,9.70
2023-04-20T17:22:55.061Z,13.00
2023-04-20T17:25:28.328Z,10.13
2023-04-20T17:27:56.943Z,10.50
2023-04-20T17:30:25.578Z,10.88
2023-04-20T17:32:54.515Z,9.73
2023-04-20T17:35:25.143Z,19.60
2023-04-20T17:37:54.575Z,16.20
2023-04-20T17:40:24.414Z,13.27
2023-04-20T17:42:55.507Z,19.67
2023-04-20T17:45:24.937Z,11.73
2023-04-20T17:47:54.781Z,17.23
2023-04-20T17:50:30.489Z,17.83
2023-04-20T17:53:03.801Z,22.58
2023-04-20T17:55:32.807Z,16.38
2023-04-20T17:58:24.215Z,18.35
2023-04-20T18:03:42.362Z,14.73
2023-04-20T18:06:22.639Z,17.95
2023-04-20T18:08:54.583Z,12.70
2023-04-20T18:14:25.976Z,14.73
2023-04-20T18:17:09.700Z,17.27
2023-04-20T18:39:13.503Z,14.52
2023-04-20T18:41:42.921Z,19.13
2023-04-20T18:44:21.361Z,13.50
2023-04-20T18:46:50.158Z,15.65
2023-04-20T18:52:22.329Z,11.88
2023-04-20T18:55:00.626Z,15.30
2023-04-20T19:00:25.885Z,18.88
2023-04-20T19:02:56.821Z,18.52
2023-04-20T19:05:39.730Z,13.80
2023-04-20T19:08:11.980Z,15.48
2023-04-20T19:10:40.662Z,15.98
2023-04-20T19:13:09.748Z,13.43
2023-04-20T19:15:58.434Z,15.65
2023-04-20T19:21:32.772Z,13.38
2023-04-20T19:24:12.217Z,12.68
2023-04-20T19:26:48.167Z,17.55
2023-04-20T19:32:19.122Z,16.17
2023-04-20T19:47:11.649Z,22.05
2023-04-20T19:56:17.926Z,20.77
2023-04-20T20:03:10.087Z,19.92
2023-04-20T20:05:51.153Z,21.48
2023-04-20T20:12:10.856Z,21.77
2023-04-20T20:14:40.159Z,22.63
2023-04-20T20:17:27.292Z,25.70
2023-04-20T20:20:01.688Z,22.35
2023-04-20T20:22:35.639Z,19.42
2023-04-20T20:30:51.279Z,19.17
2023-04-20T20:33:38.642Z,26.52
2023-04-20T20:39:01.460Z,24.48
2023-04-20T20:41:30.607Z,21.17
2023-04-20T20:43:59.795Z,19.95
2023-04-20T20:46:27.952Z,25.45
2023-04-20T20:48:57.028Z,21.70
2023-04-20T20:51:26.575Z,20.02
2023-04-20T20:53:54.822Z,18.70
2023-04-20T20:56:24.389Z,21.80
2023-04-20T20:58:54.248Z,22.88
2023-04-20T21:01:22.644Z,24.25
2023-04-20T21:03:51.179Z,21.48
2023-04-20T21:06:19.441Z,26.55
2023-04-20T21:08:48.692Z,22.85
2023-04-20T21:11:16.906Z,19.85
2023-04-20T21:13:47.458Z,19.15
2023-04-20T21:16:15.783Z,19.33
2023-04-20T21:18:44.001Z,19.20
2023-04-20T21:21:13.657Z,21.83
2023-04-20T21:23:42.224Z,23.27
2023-04-20T21:26:10.305Z,24.65
2023-04-20T21:28:38.501Z,21.05
2023-04-20T21:31:08.134Z,20.23
2023-04-20T21:33:36.906Z,28.98
2023-04-20T21:36:07.161Z,31.08
2023-04-20T21:38:35.820Z,27.48
2023-04-20T21:41:04.203Z,28.02
2023-04-20T21:43:32.454Z,21.33
2023-04-20T21:46:00.637Z,26.63
2023-04-20T21:48:30.275Z,20.95
2023-04-20T21:50:58.411Z,22.40
2023-04-20T21:53:26.616Z,29.00
2023-04-20T21:55:54.720Z,23.58
2023-04-20T21:58:22.888Z,21.95
2023-04-20T22:00:51.080Z,22.88
2023-04-20T22:03:19.429Z,25.17
2023-04-20T22:05:49.204Z,21.98
2023-04-20T22:08:21.967Z,24.10
2023-04-20T22:10:50.564Z,20.30
2023-04-20T22:13:19.759Z,26.15
2023-04-20T22:15:49.112Z,27.13
2023-04-20T22:18:19.005Z,24.92
2023-04-20T22:20:49.629Z,25.13
2023-04-20T22:23:17.775Z,16.75
2023-04-20T22:25:45.970Z,25.15
2023-04-20T22:28:14.141Z,19.90
2023-04-20T22:30:42.617Z,19.80
2023-04-20T22:33:10.844Z,25.02
2023-04-20T22:35:39.061Z,18.83
2023-04-20T22:38:08.516Z,17.77
2023-04-20T22:40:36.751Z,17.27
2023-04-20T22:43:05.046Z,20.17
2023-04-20T22:45:33.536Z,18.15
2023-04-20T22:48:01.655Z,18.95
2023-04-20T22:50:29.950Z,17.17
2023-04-20T22:52:58.027Z,24.50
2023-04-20T22:55:27.808Z,16.17
2023-04-20T22:57:55.953Z,15.90
2023-04-20T23:00:24.180Z,20.38
2023-04-20T23:02:52.385Z,21.63
2023-04-20T23:05:20.885Z,19.50
2023-04-20T23:07:49.568Z,18.42
2023-04-20T23:10:19.060Z,18.40
2023-04-20T23:12:48.536Z,19.50
2023-04-20T23:15:16.717Z,16.08
2023-04-20T23:17:44.920Z,19.42
2023-04-20T23:20:14.616Z,23.52
2023-04-20T23:22:42.843Z,19.77
2023-04-20T23:25:11.511Z,15.32
2023-04-20T23:27:39.757Z,17.30
2023-04-20T23:30:10.657Z,17.92
2023-04-20T23:32:38.785Z,17.27
2023-04-20T23:35:08.558Z,14.63
2023-04-20T23:37:36.769Z,17.05
2023-04-20T23:40:07.364Z,26.17
2023-04-20T23:42:37.501Z,19.77
2023-04-20T23:45:06.410Z,20.02
2023-04-20T23:47:36.008Z,18.35
2023-04-20T23:50:04.164Z,18.63
2023-04-20T23:52:32.383Z,17.05
2023-04-20T23:55:00.647Z,18.10
2023-04-20T23:57:28.901Z,13.68
2023-04-20T23:59:57.056Z,19.85
